sensor_id;sensor_type;location;lat;lon;timestamp;P1;durP1;ratioP1;P2;durP2;ratioP2
46675;SDS011;32412;51.478;5.694;2023-11-19T00:01:48;10.32;;;6.32;;
46675;SDS011;32412;51.478;5.694;2023-11-19T00:04:14;10.40;;;6.13;;
46675;SDS011;32412;51.478;5.694;2023-11-19T00:06:40;10.40;;;5.78;;
46675;SDS011;32412;51.478;5.694;2023-11-19T00:09:06;14.05;;;6.00;;
46675;SDS011;32412;51.478;5.694;2023-11-19T00:11:33;12.93;;;6.10;;
46675;SDS011;32412;51.478;5.694;2023-11-19T00:13:58;7.63;;;5.05;;
46675;SDS011;32412;51.478;5.694;2023-11-19T00:16:24;12.65;;;5.30;;
46675;SDS011;32412;51.478;5.694;2023-11-19T00:18:49;11.85;;;5.00;;
46675;SDS011;32412;51.478;5.694;2023-11-19T00:21:15;12.63;;;5.50;;
46675;SDS011;32412;51.478;5.694;2023-11-19T00:23:41;8.75;;;4.35;;
46675;SDS011;32412;51.478;5.694;2023-11-19T00:26:07;5.88;;;3.95;;
46675;SDS011;32412;51.478;5.694;2023-11-19T00:28:33;6.45;;;3.65;;
46675;SDS011;32412;51.478;5.694;2023-11-19T00:30:59;7.80;;;3.58;;
46675;SDS011;32412;51.478;5.694;2023-11-19T00:33:24;5.65;;;3.60;;
46675;SDS011;32412;51.478;5.694;2023-11-19T00:35:50;9.90;;;3.70;;
46675;SDS011;32412;51.478;5.694;2023-11-19T00:38:16;5.25;;;3.05;;
46675;SDS011;32412;51.478;5.694;2023-11-19T00:40:42;6.88;;;3.38;;
46675;SDS011;32412;51.478;5.694;2023-11-19T00:43:09;5.85;;;3.53;;
46675;SDS011;32412;51.478;5.694;2023-11-19T00:45:34;10.18;;;3.17;;
46675;SDS011;32412;51.478;5.694;2023-11-19T00:48:00;6.20;;;3.10;;
46675;SDS011;32412;51.478;5.694;2023-11-19T00:50:26;6.43;;;3.10;;
46675;SDS011;32412;51.478;5.694;2023-11-19T00:52:51;7.20;;;2.92;;
46675;SDS011;32412;51.478;5.694;2023-11-19T00:55:17;6.65;;;2.95;;
46675;SDS011;32412;51.478;5.694;2023-11-19T00:57:43;7.18;;;2.90;;
46675;SDS011;32412;51.478;5.694;2023-11-19T01:00:09;4.80;;;2.65;;
46675;SDS011;32412;51.478;5.694;2023-11-19T01:02:44;6.32;;;2.35;;
46675;SDS011;32412;51.478;5.694;2023-11-19T01:05:11;8.38;;;2.83;;
46675;SDS011;32412;51.478;5.694;2023-11-19T01:07:39;9.80;;;2.72;;
46675;SDS011;32412;51.478;5.694;2023-11-19T01:10:05;3.58;;;2.22;;
46675;SDS011;32412;51.478;5.694;2023-11-19T01:12:32;8.40;;;2.50;;
46675;SDS011;32412;51.478;5.694;2023-11-19T01:14:58;8.30;;;2.95;;
46675;SDS011;32412;51.478;5.694;2023-11-19T01:17:23;5.70;;;2.60;;
46675;SDS011;32412;51.478;5.694;2023-11-19T01:19:49;14.95;;;3.47;;
46675;SDS011;32412;51.478;5.694;2023-11-19T01:22:15;11.82;;;2.33;;
46675;SDS011;32412;51.478;5.694;2023-11-19T01:24:41;13.52;;;2.65;;
46675;SDS011;32412;51.478;5.694;2023-11-19T01:27:06;7.30;;;2.50;;
46675;SDS011;32412;51.478;5.694;2023-11-19T01:29:33;10.52;;;2.67;;
46675;SDS011;32412;51.478;5.694;2023-11-19T01:31:59;7.13;;;2.65;;
46675;SDS011;32412;51.478;5.694;2023-11-19T01:34:24;7.55;;;2.42;;
46675;SDS011;32412;51.478;5.694;2023-11-19T01:36:50;10.13;;;2.97;;
46675;SDS011;32412;51.478;5.694;2023-11-19T01:39:16;11.77;;;2.55;;
46675;SDS011;32412;51.478;5.694;2023-11-19T01:41:41;9.00;;;2.53;;
46675;SDS011;32412;51.478;5.694;2023-11-19T01:44:07;12.45;;;2.67;;
46675;SDS011;32412;51.478;5.694;2023-11-19T01:46:33;14.25;;;2.83;;
46675;SDS011;32412;51.478;5.694;2023-11-19T01:49:00;12.70;;;2.60;;
46675;SDS011;32412;51.478;5.694;2023-11-19T01:51:32;14.55;;;3.00;;
46675;SDS011;32412;51.478;5.694;2023-11-19T01:53:58;13.52;;;3.42;;
46675;SDS011;32412;51.478;5.694;2023-11-19T01:56:29;14.48;;;2.85;;
46675;SDS011;32412;51.478;5.694;2023-11-19T01:59:01;11.63;;;2.55;;
46675;SDS011;32412;51.478;5.694;2023-11-19T02:08:12;10.82;;;3.25;;
46675;SDS011;32412;51.478;5.694;2023-11-19T02:10:48;13.18;;;2.25;;
46675;SDS011;32412;51.478;5.694;2023-11-19T02:13:26;14.63;;;2.63;;
46675;SDS011;32412;51.478;5.694;2023-11-19T02:15:53;7.95;;;2.45;;
46675;SDS011;32412;51.478;5.694;2023-11-19T02:28:28;13.52;;;2.88;;
46675;SDS011;32412;51.478;5.694;2023-11-19T02:30:59;12.00;;;3.08;;
46675;SDS011;32412;51.478;5.694;2023-11-19T02:33:36;12.48;;;3.03;;
46675;SDS011;32412;51.478;5.694;2023-11-19T02:36:29;7.15;;;2.58;;
46675;SDS011;32412;51.478;5.694;2023-11-19T02:45:01;11.27;;;2.90;;
46675;SDS011;32412;51.478;5.694;2023-11-19T02:47:27;10.98;;;3.50;;
46675;SDS011;32412;51.478;5.694;2023-11-19T02:49:55;13.00;;;2.80;;
46675;SDS011;32412;51.478;5.694;2023-11-19T02:52:21;18.20;;;3.53;;
46675;SDS011;32412;51.478;5.694;2023-11-19T02:54:50;22.75;;;3.67;;
46675;SDS011;32412;51.478;5.694;2023-11-19T02:57:17;21.55;;;3.55;;
46675;SDS011;32412;51.478;5.694;2023-11-19T02:59:50;24.70;;;3.70;;
46675;SDS011;32412;51.478;5.694;2023-11-19T03:02:23;23.83;;;3.42;;
46675;SDS011;32412;51.478;5.694;2023-11-19T03:04:58;18.60;;;3.42;;
46675;SDS011;32412;51.478;5.694;2023-11-19T03:07:33;22.17;;;3.40;;
46675;SDS011;32412;51.478;5.694;2023-11-19T03:10:01;18.13;;;3.63;;
46675;SDS011;32412;51.478;5.694;2023-11-19T03:12:30;22.88;;;3.58;;
46675;SDS011;32412;51.478;5.694;2023-11-19T03:14:56;24.90;;;3.58;;
46675;SDS011;32412;51.478;5.694;2023-11-19T03:31:54;18.83;;;3.35;;
46675;SDS011;32412;51.478;5.694;2023-11-19T03:34:20;24.88;;;3.83;;
46675;SDS011;32412;51.478;5.694;2023-11-19T03:36:48;31.83;;;5.10;;
46675;SDS011;32412;51.478;5.694;2023-11-19T03:39:18;32.90;;;3.88;;
46675;SDS011;32412;51.478;5.694;2023-11-19T04:57:03;38.47;;;6.20;;
46675;SDS011;32412;51.478;5.694;2023-11-19T04:59:29;31.35;;;4.28;;
46675;SDS011;32412;51.478;5.694;2023-11-19T05:01:59;28.42;;;4.28;;
46675;SDS011;32412;51.478;5.694;2023-11-19T05:04:30;27.75;;;3.90;;
46675;SDS011;32412;51.478;5.694;2023-11-19T05:06:57;29.75;;;4.90;;
46675;SDS011;32412;51.478;5.694;2023-11-19T05:09:25;29.58;;;3.65;;
46675;SDS011;32412;51.478;5.694;2023-11-19T05:11:51;29.17;;;4.20;;
46675;SDS011;32412;51.478;5.694;2023-11-19T05:14:20;29.95;;;4.15;;
46675;SDS011;32412;51.478;5.694;2023-11-19T05:16:49;24.90;;;3.90;;
46675;SDS011;32412;51.478;5.694;2023-11-19T05:19:25;27.20;;;4.47;;
46675;SDS011;32412;51.478;5.694;2023-11-19T05:22:07;34.00;;;4.15;;
46675;SDS011;32412;51.478;5.694;2023-11-19T05:24:47;29.33;;;3.63;;
46675;SDS011;32412;51.478;5.694;2023-11-19T07:34:25;37.03;;;4.60;;
46675;SDS011;32412;51.478;5.694;2023-11-19T07:36:50;28.63;;;4.57;;
46675;SDS011;32412;51.478;5.694;2023-11-19T07:39:18;37.40;;;5.40;;
46675;SDS011;32412;51.478;5.694;2023-11-19T07:41:48;29.90;;;4.88;;
46675;SDS011;32412;51.478;5.694;2023-11-19T07:44:14;37.88;;;4.63;;
46675;SDS011;32412;51.478;5.694;2023-11-19T07:46:43;31.90;;;4.35;;
46675;SDS011;32412;51.478;5.694;2023-11-19T07:49:10;33.30;;;3.83;;
46675;SDS011;32412;51.478;5.694;2023-11-19T07:51:37;37.03;;;4.72;;
46675;SDS011;32412;51.478;5.694;2023-11-19T07:54:03;27.38;;;4.05;;
46675;SDS011;32412;51.478;5.694;2023-11-19T07:56:29;26.58;;;4.72;;
46675;SDS011;32412;51.478;5.694;2023-11-19T07:58:56;27.00;;;4.78;;
46675;SDS011;32412;51.478;5.694;2023-11-19T08:01:23;31.38;;;4.18;;
46675;SDS011;32412;51.478;5.694;2023-11-19T08:03:48;39.92;;;4.57;;
46675;SDS011;32412;51.478;5.694;2023-11-19T08:06:14;30.38;;;4.22;;
46675;SDS011;32412;51.478;5.694;2023-11-19T08:08:40;36.28;;;4.25;;
46675;SDS011;32412;51.478;5.694;2023-11-19T08:11:06;33.75;;;5.53;;
46675;SDS011;32412;51.478;5.694;2023-11-19T08:13:32;33.70;;;4.10;;
46675;SDS011;32412;51.478;5.694;2023-11-19T08:15:58;25.42;;;4.28;;
46675;SDS011;32412;51.478;5.694;2023-11-19T08:21:51;31.65;;;4.38;;
46675;SDS011;32412;51.478;5.694;2023-11-19T08:24:17;38.33;;;4.55;;
46675;SDS011;32412;51.478;5.694;2023-11-19T08:26:43;30.25;;;4.60;;
46675;SDS011;32412;51.478;5.694;2023-11-19T08:29:09;36.15;;;4.22;;
46675;SDS011;32412;51.478;5.694;2023-11-19T08:31:34;29.33;;;3.60;;
46675;SDS011;32412;51.478;5.694;2023-11-19T08:34:00;32.10;;;3.95;;
46675;SDS011;32412;51.478;5.694;2023-11-19T08:36:26;27.80;;;3.83;;
46675;SDS011;32412;51.478;5.694;2023-11-19T08:38:53;34.10;;;4.72;;
46675;SDS011;32412;51.478;5.694;2023-11-19T08:41:19;25.27;;;3.75;;
46675;SDS011;32412;51.478;5.694;2023-11-19T08:43:46;28.75;;;4.13;;
46675;SDS011;32412;51.478;5.694;2023-11-19T08:46:12;24.35;;;3.60;;
46675;SDS011;32412;51.478;5.694;2023-11-19T08:48:38;32.10;;;4.60;;
46675;SDS011;32412;51.478;5.694;2023-11-19T08:51:05;28.98;;;4.85;;
46675;SDS011;32412;51.478;5.694;2023-11-19T08:53:31;34.20;;;5.57;;
46675;SDS011;32412;51.478;5.694;2023-11-19T08:55:57;29.95;;;4.43;;
46675;SDS011;32412;51.478;5.694;2023-11-19T08:58:22;23.55;;;4.47;;
46675;SDS011;32412;51.478;5.694;2023-11-19T09:00:48;30.15;;;4.05;;
46675;SDS011;32412;51.478;5.694;2023-11-19T09:03:13;26.60;;;4.75;;
46675;SDS011;32412;51.478;5.694;2023-11-19T09:05:39;28.95;;;3.92;;
46675;SDS011;32412;51.478;5.694;2023-11-19T09:08:06;30.00;;;3.90;;
46675;SDS011;32412;51.478;5.694;2023-11-19T09:13:54;31.05;;;4.82;;
46675;SDS011;32412;51.478;5.694;2023-11-19T09:16:20;25.38;;;3.55;;
46675;SDS011;32412;51.478;5.694;2023-11-19T09:18:46;27.15;;;4.25;;
46675;SDS011;32412;51.478;5.694;2023-11-19T09:21:12;26.73;;;3.85;;
46675;SDS011;32412;51.478;5.694;2023-11-19T09:23:37;28.13;;;5.00;;
46675;SDS011;32412;51.478;5.694;2023-11-19T09:26:04;24.45;;;3.47;;
46675;SDS011;32412;51.478;5.694;2023-11-19T09:28:30;30.48;;;4.85;;
46675;SDS011;32412;51.478;5.694;2023-11-19T09:30:56;25.83;;;4.07;;
46675;SDS011;32412;51.478;5.694;2023-11-19T09:33:23;33.63;;;4.93;;
46675;SDS011;32412;51.478;5.694;2023-11-19T09:35:49;26.00;;;4.30;;
46675;SDS011;32412;51.478;5.694;2023-11-19T09:38:15;26.42;;;3.53;;
46675;SDS011;32412;51.478;5.694;2023-11-19T09:40:42;26.80;;;4.07;;
46675;SDS011;32412;51.478;5.694;2023-11-19T09:43:08;27.20;;;3.67;;
46675;SDS011;32412;51.478;5.694;2023-11-19T09:48:12;26.13;;;3.63;;
46675;SDS011;32412;51.478;5.694;2023-11-19T09:50:37;27.20;;;4.55;;
46675;SDS011;32412;51.478;5.694;2023-11-19T09:53:05;32.90;;;3.92;;
46675;SDS011;32412;51.478;5.694;2023-11-19T09:55:31;27.75;;;3.92;;
46675;SDS011;32412;51.478;5.694;2023-11-19T09:57:57;24.45;;;4.15;;
46675;SDS011;32412;51.478;5.694;2023-11-19T10:00:26;28.50;;;4.10;;
46675;SDS011;32412;51.478;5.694;2023-11-19T10:06:14;23.63;;;4.05;;
46675;SDS011;32412;51.478;5.694;2023-11-19T10:08:41;24.50;;;4.40;;
46675;SDS011;32412;51.478;5.694;2023-11-19T10:11:08;25.17;;;3.97;;
46675;SDS011;32412;51.478;5.694;2023-11-19T10:13:37;23.65;;;3.58;;
46675;SDS011;32412;51.478;5.694;2023-11-19T10:16:09;26.38;;;4.07;;
46675;SDS011;32412;51.478;5.694;2023-11-19T10:18:37;21.05;;;3.58;;
46675;SDS011;32412;51.478;5.694;2023-11-19T10:21:06;23.98;;;3.42;;
46675;SDS011;32412;51.478;5.694;2023-11-19T10:23:51;24.40;;;4.03;;
46675;SDS011;32412;51.478;5.694;2023-11-19T10:26:18;17.90;;;3.38;;
46675;SDS011;32412;51.478;5.694;2023-11-19T10:28:45;29.35;;;4.63;;
46675;SDS011;32412;51.478;5.694;2023-11-19T10:31:14;20.85;;;4.05;;
46675;SDS011;32412;51.478;5.694;2023-11-19T10:33:41;21.20;;;3.90;;
46675;SDS011;32412;51.478;5.694;2023-11-19T10:36:07;20.17;;;3.20;;
46675;SDS011;32412;51.478;5.694;2023-11-19T10:38:33;22.08;;;3.78;;
46675;SDS011;32412;51.478;5.694;2023-11-19T10:40:59;21.23;;;4.15;;
46675;SDS011;32412;51.478;5.694;2023-11-19T10:43:24;15.35;;;2.92;;
46675;SDS011;32412;51.478;5.694;2023-11-19T10:45:50;24.10;;;3.33;;
46675;SDS011;32412;51.478;5.694;2023-11-19T10:48:17;24.25;;;3.50;;
46675;SDS011;32412;51.478;5.694;2023-11-19T10:50:43;24.73;;;3.67;;
46675;SDS011;32412;51.478;5.694;2023-11-19T10:53:11;26.27;;;3.75;;
46675;SDS011;32412;51.478;5.694;2023-11-19T10:55:47;22.08;;;3.92;;
46675;SDS011;32412;51.478;5.694;2023-11-19T10:58:15;23.25;;;3.63;;
46675;SDS011;32412;51.478;5.694;2023-11-19T11:00:45;20.92;;;3.95;;
46675;SDS011;32412;51.478;5.694;2023-11-19T11:03:20;21.98;;;3.60;;
46675;SDS011;32412;51.478;5.694;2023-11-19T11:05:50;21.95;;;3.75;;
46675;SDS011;32412;51.478;5.694;2023-11-19T11:08:17;13.88;;;3.05;;
46675;SDS011;32412;51.478;5.694;2023-11-19T11:13:20;17.48;;;3.33;;
46675;SDS011;32412;51.478;5.694;2023-11-19T11:15:49;27.77;;;3.95;;
46675;SDS011;32412;51.478;5.694;2023-11-19T11:18:15;19.73;;;3.85;;
46675;SDS011;32412;51.478;5.694;2023-11-19T11:20:47;19.45;;;3.63;;
46675;SDS011;32412;51.478;5.694;2023-11-19T11:37:10;25.33;;;3.58;;
46675;SDS011;32412;51.478;5.694;2023-11-19T11:39:39;30.77;;;3.53;;
46675;SDS011;32412;51.478;5.694;2023-11-19T11:44:58;26.45;;;3.25;;
46675;SDS011;32412;51.478;5.694;2023-11-19T11:50:10;23.55;;;3.40;;
46675;SDS011;32412;51.478;5.694;2023-11-19T11:55:37;18.30;;;3.17;;
46675;SDS011;32412;51.478;5.694;2023-11-19T11:58:20;23.13;;;3.25;;
46675;SDS011;32412;51.478;5.694;2023-11-19T12:00:50;21.70;;;2.97;;
46675;SDS011;32412;51.478;5.694;2023-11-19T12:03:19;16.25;;;3.78;;
46675;SDS011;32412;51.478;5.694;2023-11-19T12:05:49;19.17;;;3.38;;
46675;SDS011;32412;51.478;5.694;2023-11-19T12:08:18;18.75;;;3.03;;
46675;SDS011;32412;51.478;5.694;2023-11-19T12:10:46;18.45;;;3.45;;
46675;SDS011;32412;51.478;5.694;2023-11-19T12:13:14;16.42;;;3.22;;
46675;SDS011;32412;51.478;5.694;2023-11-19T12:18:23;17.13;;;2.70;;
46675;SDS011;32412;51.478;5.694;2023-11-19T12:20:52;21.58;;;3.00;;
46675;SDS011;32412;51.478;5.694;2023-11-19T12:23:18;20.98;;;3.50;;
46675;SDS011;32412;51.478;5.694;2023-11-19T12:25:44;20.83;;;2.85;;
46675;SDS011;32412;51.478;5.694;2023-11-19T12:28:14;18.52;;;3.42;;
46675;SDS011;32412;51.478;5.694;2023-11-19T12:30:44;22.77;;;3.47;;
46675;SDS011;32412;51.478;5.694;2023-11-19T12:33:11;21.63;;;3.53;;
46675;SDS011;32412;51.478;5.694;2023-11-19T12:35:41;17.33;;;3.40;;
46675;SDS011;32412;51.478;5.694;2023-11-19T12:38:08;18.08;;;3.00;;
46675;SDS011;32412;51.478;5.694;2023-11-19T12:40:43;20.90;;;3.47;;
46675;SDS011;32412;51.478;5.694;2023-11-19T12:43:08;22.20;;;3.45;;
46675;SDS011;32412;51.478;5.694;2023-11-19T12:45:43;21.92;;;3.95;;
46675;SDS011;32412;51.478;5.694;2023-11-19T12:48:09;20.50;;;3.47;;
46675;SDS011;32412;51.478;5.694;2023-11-19T12:50:52;20.52;;;3.72;;
46675;SDS011;32412;51.478;5.694;2023-11-19T12:53:19;19.38;;;3.92;;
46675;SDS011;32412;51.478;5.694;2023-11-19T12:55:48;16.67;;;3.40;;
46675;SDS011;32412;51.478;5.694;2023-11-19T12:58:28;16.55;;;3.15;;
46675;SDS011;32412;51.478;5.694;2023-11-19T13:01:05;25.52;;;3.33;;
46675;SDS011;32412;51.478;5.694;2023-11-19T13:03:47;26.35;;;3.28;;
46675;SDS011;32412;51.478;5.694;2023-11-19T13:06:14;22.13;;;3.13;;
46675;SDS011;32412;51.478;5.694;2023-11-19T13:08:41;23.60;;;3.28;;
46675;SDS011;32412;51.478;5.694;2023-11-19T13:11:12;15.30;;;3.42;;
46675;SDS011;32412;51.478;5.694;2023-11-19T13:16:29;11.13;;;2.60;;
46675;SDS011;32412;51.478;5.694;2023-11-19T13:18:55;15.23;;;2.67;;
46675;SDS011;32412;51.478;5.694;2023-11-19T13:21:22;25.30;;;4.15;;
46675;SDS011;32412;51.478;5.694;2023-11-19T13:23:48;17.65;;;3.47;;
46675;SDS011;32412;51.478;5.694;2023-11-19T13:26:13;23.90;;;4.75;;
46675;SDS011;32412;51.478;5.694;2023-11-19T13:28:39;26.23;;;3.72;;
46675;SDS011;32412;51.478;5.694;2023-11-19T13:31:05;22.88;;;5.15;;
46675;SDS011;32412;51.478;5.694;2023-11-19T13:33:31;24.52;;;3.75;;
46675;SDS011;32412;51.478;5.694;2023-11-19T13:35:57;28.25;;;3.42;;
46675;SDS011;32412;51.478;5.694;2023-11-19T13:38:23;27.67;;;4.05;;
46675;SDS011;32412;51.478;5.694;2023-11-19T13:40:49;22.30;;;3.72;;
46675;SDS011;32412;51.478;5.694;2023-11-19T13:43:16;15.35;;;2.97;;
46675;SDS011;32412;51.478;5.694;2023-11-19T13:45:42;15.50;;;2.83;;
46675;SDS011;32412;51.478;5.694;2023-11-19T13:48:07;22.30;;;3.42;;
46675;SDS011;32412;51.478;5.694;2023-11-19T13:50:34;13.18;;;2.75;;
46675;SDS011;32412;51.478;5.694;2023-11-19T13:53:00;13.43;;;2.83;;
46675;SDS011;32412;51.478;5.694;2023-11-19T13:55:25;17.67;;;3.35;;
46675;SDS011;32412;51.478;5.694;2023-11-19T13:57:51;22.02;;;3.15;;
46675;SDS011;32412;51.478;5.694;2023-11-19T14:00:17;17.25;;;3.47;;
46675;SDS011;32412;51.478;5.694;2023-11-19T14:02:44;19.80;;;3.53;;
46675;SDS011;32412;51.478;5.694;2023-11-19T14:05:11;21.85;;;2.88;;
46675;SDS011;32412;51.478;5.694;2023-11-19T14:07:37;15.60;;;2.72;;
46675;SDS011;32412;51.478;5.694;2023-11-19T14:10:06;21.15;;;4.10;;
46675;SDS011;32412;51.478;5.694;2023-11-19T14:12:34;21.83;;;3.60;;
46675;SDS011;32412;51.478;5.694;2023-11-19T14:15:01;25.77;;;4.07;;
46675;SDS011;32412;51.478;5.694;2023-11-19T14:17:27;18.08;;;3.35;;
46675;SDS011;32412;51.478;5.694;2023-11-19T14:19:53;25.50;;;3.45;;
46675;SDS011;32412;51.478;5.694;2023-11-19T14:22:18;27.52;;;3.42;;
46675;SDS011;32412;51.478;5.694;2023-11-19T14:24:44;23.10;;;3.63;;
46675;SDS011;32412;51.478;5.694;2023-11-19T14:27:10;23.02;;;3.22;;
46675;SDS011;32412;51.478;5.694;2023-11-19T14:29:36;20.80;;;3.90;;
46675;SDS011;32412;51.478;5.694;2023-11-19T14:32:02;26.70;;;3.67;;
46675;SDS011;32412;51.478;5.694;2023-11-19T14:34:31;21.77;;;3.65;;
46675;SDS011;32412;51.478;5.694;2023-11-19T14:36:57;20.33;;;3.38;;
46675;SDS011;32412;51.478;5.694;2023-11-19T14:39:24;20.92;;;3.08;;
46675;SDS011;32412;51.478;5.694;2023-11-19T14:41:50;16.98;;;3.65;;
46675;SDS011;32412;51.478;5.694;2023-11-19T14:44:16;19.27;;;2.88;;
46675;SDS011;32412;51.478;5.694;2023-11-19T14:46:41;23.85;;;3.30;;
46675;SDS011;32412;51.478;5.694;2023-11-19T14:49:07;19.75;;;3.58;;
46675;SDS011;32412;51.478;5.694;2023-11-19T14:51:36;17.52;;;3.15;;
46675;SDS011;32412;51.478;5.694;2023-11-19T14:54:22;19.05;;;3.40;;
46675;SDS011;32412;51.478;5.694;2023-11-19T14:56:49;18.30;;;3.10;;
46675;SDS011;32412;51.478;5.694;2023-11-19T14:59:14;20.13;;;3.42;;
46675;SDS011;32412;51.478;5.694;2023-11-19T15:01:40;21.20;;;3.55;;
46675;SDS011;32412;51.478;5.694;2023-11-19T15:04:06;17.67;;;3.00;;
46675;SDS011;32412;51.478;5.694;2023-11-19T15:06:32;20.17;;;3.38;;
46675;SDS011;32412;51.478;5.694;2023-11-19T15:08:58;19.13;;;3.25;;
46675;SDS011;32412;51.478;5.694;2023-11-19T15:11:24;19.83;;;3.15;;
46675;SDS011;32412;51.478;5.694;2023-11-19T15:13:50;20.88;;;2.78;;
46675;SDS011;32412;51.478;5.694;2023-11-19T15:16:15;18.15;;;3.53;;
46675;SDS011;32412;51.478;5.694;2023-11-19T15:18:47;24.42;;;3.78;;
46675;SDS011;32412;51.478;5.694;2023-11-19T15:21:12;25.85;;;3.15;;
46675;SDS011;32412;51.478;5.694;2023-11-19T15:23:59;33.88;;;3.40;;
46675;SDS011;32412;51.478;5.694;2023-11-19T15:26:32;25.55;;;3.75;;
46675;SDS011;32412;51.478;5.694;2023-11-19T15:29:03;18.63;;;3.20;;
46675;SDS011;32412;51.478;5.694;2023-11-19T15:31:29;23.48;;;3.83;;
46675;SDS011;32412;51.478;5.694;2023-11-19T15:33:55;19.55;;;3.67;;
46675;SDS011;32412;51.478;5.694;2023-11-19T15:36:21;27.92;;;4.35;;
46675;SDS011;32412;51.478;5.694;2023-11-19T15:38:47;28.60;;;3.70;;
46675;SDS011;32412;51.478;5.694;2023-11-19T15:41:13;20.95;;;3.95;;
46675;SDS011;32412;51.478;5.694;2023-11-19T15:43:39;24.20;;;4.25;;
46675;SDS011;32412;51.478;5.694;2023-11-19T15:46:08;30.25;;;4.60;;
46675;SDS011;32412;51.478;5.694;2023-11-19T15:48:34;32.83;;;4.47;;
46675;SDS011;32412;51.478;5.694;2023-11-19T15:51:00;31.00;;;4.25;;
46675;SDS011;32412;51.478;5.694;2023-11-19T15:53:27;25.95;;;4.88;;
46675;SDS011;32412;51.478;5.694;2023-11-19T15:55:55;23.35;;;4.22;;
46675;SDS011;32412;51.478;5.694;2023-11-19T16:03:34;24.65;;;4.28;;
46675;SDS011;32412;51.478;5.694;2023-11-19T16:42:14;21.08;;;5.43;;
46675;SDS011;32412;51.478;5.694;2023-11-19T16:50:40;29.00;;;3.70;;
46675;SDS011;32412;51.478;5.694;2023-11-19T16:53:08;18.55;;;3.13;;
46675;SDS011;32412;51.478;5.694;2023-11-19T16:55:37;28.10;;;3.55;;
46675;SDS011;32412;51.478;5.694;2023-11-19T17:01:29;33.50;;;4.60;;
46675;SDS011;32412;51.478;5.694;2023-11-19T17:07:22;26.25;;;3.80;;
46675;SDS011;32412;51.478;5.694;2023-11-19T17:09:50;35.95;;;3.72;;
46675;SDS011;32412;51.478;5.694;2023-11-19T19:05:30;14.77;;;2.88;;
46675;SDS011;32412;51.478;5.694;2023-11-19T19:30:49;15.50;;;2.67;;
46675;SDS011;32412;51.478;5.694;2023-11-19T19:33:17;15.68;;;3.35;;
46675;SDS011;32412;51.478;5.694;2023-11-19T19:35:45;16.52;;;4.28;;
46675;SDS011;32412;51.478;5.694;2023-11-19T19:38:11;16.17;;;3.08;;
46675;SDS011;32412;51.478;5.694;2023-11-19T19:40:39;13.05;;;3.35;;
46675;SDS011;32412;51.478;5.694;2023-11-19T23:09:14;9.52;;;2.50;;
46675;SDS011;32412;51.478;5.694;2023-11-19T23:11:50;14.35;;;3.15;;
46675;SDS011;32412;51.478;5.694;2023-11-19T23:14:41;14.60;;;2.92;;
46675;SDS011;32412;51.478;5.694;2023-11-19T23:37:51;19.40;;;3.40;;
46675;SDS011;32412;51.478;5.694;2023-11-19T23:50:35;14.68;;;3.22;;
46675;SDS011;32412;51.478;5.694;2023-11-19T23:53:06;11.80;;;2.50;;
46675;SDS011;32412;51.478;5.694;2023-11-19T23:55:37;15.93;;;3.63;;
46675;SDS011;32412;51.478;5.694;2023-11-19T23:58:12;14.55;;;3.05;;
